sensor_id;sensor_type;location;lat;lon;timestamp;P1;durP1;ratioP1;P2;durP2;ratioP2
76953;SDS011;65893;51.698;-0.292;2024-02-14T00:01:05;10.65;;;3.20;;
76953;SDS011;65893;51.698;-0.292;2024-02-14T00:03:33;19.52;;;2.92;;
76953;SDS011;65893;51.698;-0.292;2024-02-14T00:05:59;15.13;;;2.60;;
76953;SDS011;65893;51.698;-0.292;2024-02-14T00:08:25;26.75;;;3.55;;
76953;SDS011;65893;51.698;-0.292;2024-02-14T00:10:51;16.10;;;3.30;;
76953;SDS011;65893;51.698;-0.292;2024-02-14T00:13:17;18.67;;;2.33;;
76953;SDS011;65893;51.698;-0.292;2024-02-14T00:15:43;20.80;;;2.60;;
76953;SDS011;65893;51.698;-0.292;2024-02-14T00:18:11;22.52;;;3.30;;
76953;SDS011;65893;51.698;-0.292;2024-02-14T00:20:37;19.27;;;3.05;;
76953;SDS011;65893;51.698;-0.292;2024-02-14T00:23:04;14.90;;;2.47;;
76953;SDS011;65893;51.698;-0.292;2024-02-14T00:25:30;23.10;;;3.20;;
76953;SDS011;65893;51.698;-0.292;2024-02-14T00:27:56;14.45;;;2.97;;
76953;SDS011;65893;51.698;-0.292;2024-02-14T00:30:25;18.63;;;2.25;;
76953;SDS011;65893;51.698;-0.292;2024-02-14T00:32:51;18.40;;;3.35;;
76953;SDS011;65893;51.698;-0.292;2024-02-14T00:35:17;18.13;;;2.95;;
76953;SDS011;65893;51.698;-0.292;2024-02-14T00:37:43;27.75;;;3.72;;
76953;SDS011;65893;51.698;-0.292;2024-02-14T00:40:09;22.25;;;3.40;;
76953;SDS011;65893;51.698;-0.292;2024-02-14T00:42:36;21.33;;;2.92;;
76953;SDS011;65893;51.698;-0.292;2024-02-14T00:45:02;24.05;;;3.63;;
76953;SDS011;65893;51.698;-0.292;2024-02-14T00:47:28;24.27;;;3.05;;
76953;SDS011;65893;51.698;-0.292;2024-02-14T00:49:54;22.30;;;3.45;;
76953;SDS011;65893;51.698;-0.292;2024-02-14T00:52:20;15.43;;;2.42;;
76953;SDS011;65893;51.698;-0.292;2024-02-14T00:54:46;23.60;;;2.95;;
76953;SDS011;65893;51.698;-0.292;2024-02-14T00:57:12;15.70;;;2.47;;
76953;SDS011;65893;51.698;-0.292;2024-02-14T00:59:38;26.50;;;4.18;;
76953;SDS011;65893;51.698;-0.292;2024-02-14T01:02:04;24.83;;;2.78;;
76953;SDS011;65893;51.698;-0.292;2024-02-14T01:04:30;28.95;;;3.22;;
76953;SDS011;65893;51.698;-0.292;2024-02-14T01:06:56;28.75;;;3.42;;
76953;SDS011;65893;51.698;-0.292;2024-02-14T01:09:23;26.50;;;3.80;;
76953;SDS011;65893;51.698;-0.292;2024-02-14T01:11:49;21.52;;;3.13;;
76953;SDS011;65893;51.698;-0.292;2024-02-14T01:14:15;17.08;;;2.80;;
76953;SDS011;65893;51.698;-0.292;2024-02-14T01:16:42;21.63;;;3.33;;
76953;SDS011;65893;51.698;-0.292;2024-02-14T01:19:08;26.77;;;3.60;;
76953;SDS011;65893;51.698;-0.292;2024-02-14T01:21:34;25.73;;;3.55;;
76953;SDS011;65893;51.698;-0.292;2024-02-14T01:24:00;18.67;;;3.72;;
76953;SDS011;65893;51.698;-0.292;2024-02-14T01:26:26;20.92;;;2.67;;
76953;SDS011;65893;51.698;-0.292;2024-02-14T01:28:52;16.58;;;3.20;;
76953;SDS011;65893;51.698;-0.292;2024-02-14T01:31:18;21.25;;;2.72;;
76953;SDS011;65893;51.698;-0.292;2024-02-14T01:33:45;26.02;;;3.22;;
76953;SDS011;65893;51.698;-0.292;2024-02-14T01:36:11;23.67;;;2.85;;
76953;SDS011;65893;51.698;-0.292;2024-02-14T01:38:39;18.33;;;2.75;;
76953;SDS011;65893;51.698;-0.292;2024-02-14T01:41:05;18.40;;;2.20;;
76953;SDS011;65893;51.698;-0.292;2024-02-14T01:43:31;16.63;;;3.35;;
76953;SDS011;65893;51.698;-0.292;2024-02-14T01:46:04;19.40;;;2.55;;
76953;SDS011;65893;51.698;-0.292;2024-02-14T01:48:33;12.13;;;2.63;;
76953;SDS011;65893;51.698;-0.292;2024-02-14T01:50:59;17.33;;;2.17;;
76953;SDS011;65893;51.698;-0.292;2024-02-14T01:53:26;20.38;;;3.28;;
76953;SDS011;65893;51.698;-0.292;2024-02-14T01:55:55;23.58;;;2.70;;
76953;SDS011;65893;51.698;-0.292;2024-02-14T01:58:21;15.10;;;2.97;;
76953;SDS011;65893;51.698;-0.292;2024-02-14T02:00:49;15.95;;;1.98;;
76953;SDS011;65893;51.698;-0.292;2024-02-14T02:03:20;14.63;;;3.05;;
76953;SDS011;65893;51.698;-0.292;2024-02-14T02:05:47;19.17;;;2.47;;
76953;SDS011;65893;51.698;-0.292;2024-02-14T02:08:13;12.50;;;2.10;;
76953;SDS011;65893;51.698;-0.292;2024-02-14T02:10:39;10.23;;;1.90;;
76953;SDS011;65893;51.698;-0.292;2024-02-14T02:13:05;18.10;;;2.42;;
76953;SDS011;65893;51.698;-0.292;2024-02-14T02:15:32;15.23;;;2.30;;
76953;SDS011;65893;51.698;-0.292;2024-02-14T02:17:58;18.52;;;1.92;;
76953;SDS011;65893;51.698;-0.292;2024-02-14T02:20:24;9.52;;;1.95;;
76953;SDS011;65893;51.698;-0.292;2024-02-14T02:22:52;12.93;;;1.48;;
76953;SDS011;65893;51.698;-0.292;2024-02-14T02:25:19;19.50;;;2.28;;
76953;SDS011;65893;51.698;-0.292;2024-02-14T02:27:49;12.95;;;2.47;;
76953;SDS011;65893;51.698;-0.292;2024-02-14T02:30:15;17.40;;;2.05;;
76953;SDS011;65893;51.698;-0.292;2024-02-14T02:32:42;8.93;;;1.83;;
76953;SDS011;65893;51.698;-0.292;2024-02-14T02:35:08;9.23;;;2.33;;
76953;SDS011;65893;51.698;-0.292;2024-02-14T02:37:35;7.95;;;1.50;;
76953;SDS011;65893;51.698;-0.292;2024-02-14T02:40:01;16.05;;;2.10;;
76953;SDS011;65893;51.698;-0.292;2024-02-14T02:42:27;7.63;;;1.92;;
76953;SDS011;65893;51.698;-0.292;2024-02-14T02:44:54;15.88;;;2.00;;
76953;SDS011;65893;51.698;-0.292;2024-02-14T02:47:20;12.18;;;1.85;;
76953;SDS011;65893;51.698;-0.292;2024-02-14T02:49:46;9.82;;;1.33;;
76953;SDS011;65893;51.698;-0.292;2024-02-14T02:52:12;7.82;;;1.75;;
76953;SDS011;65893;51.698;-0.292;2024-02-14T02:54:38;11.00;;;1.70;;
76953;SDS011;65893;51.698;-0.292;2024-02-14T02:57:11;10.10;;;1.42;;
76953;SDS011;65893;51.698;-0.292;2024-02-14T02:59:37;12.25;;;1.48;;
76953;SDS011;65893;51.698;-0.292;2024-02-14T03:02:07;6.95;;;1.60;;
76953;SDS011;65893;51.698;-0.292;2024-02-14T03:04:36;11.40;;;1.85;;
76953;SDS011;65893;51.698;-0.292;2024-02-14T03:07:02;4.75;;;1.33;;
76953;SDS011;65893;51.698;-0.292;2024-02-14T03:09:31;7.22;;;1.83;;
76953;SDS011;65893;51.698;-0.292;2024-02-14T03:11:57;9.45;;;1.58;;
76953;SDS011;65893;51.698;-0.292;2024-02-14T03:14:23;4.57;;;1.33;;
76953;SDS011;65893;51.698;-0.292;2024-02-14T03:16:49;6.30;;;1.45;;
76953;SDS011;65893;51.698;-0.292;2024-02-14T03:19:16;17.02;;;2.08;;
76953;SDS011;65893;51.698;-0.292;2024-02-14T03:21:42;8.02;;;0.98;;
76953;SDS011;65893;51.698;-0.292;2024-02-14T03:24:08;12.70;;;1.67;;
76953;SDS011;65893;51.698;-0.292;2024-02-14T03:26:34;7.10;;;1.85;;
76953;SDS011;65893;51.698;-0.292;2024-02-14T03:29:02;12.70;;;1.90;;
76953;SDS011;65893;51.698;-0.292;2024-02-14T03:31:31;17.38;;;2.30;;
76953;SDS011;65893;51.698;-0.292;2024-02-14T03:33:57;15.50;;;1.90;;
76953;SDS011;65893;51.698;-0.292;2024-02-14T03:36:23;10.98;;;1.42;;
76953;SDS011;65893;51.698;-0.292;2024-02-14T03:38:53;5.72;;;1.63;;
76953;SDS011;65893;51.698;-0.292;2024-02-14T03:41:19;4.55;;;1.50;;
76953;SDS011;65893;51.698;-0.292;2024-02-14T03:43:45;9.40;;;1.50;;
76953;SDS011;65893;51.698;-0.292;2024-02-14T03:46:11;10.80;;;1.80;;
76953;SDS011;65893;51.698;-0.292;2024-02-14T03:48:38;12.25;;;2.15;;
76953;SDS011;65893;51.698;-0.292;2024-02-14T03:51:06;4.80;;;0.90;;
76953;SDS011;65893;51.698;-0.292;2024-02-14T03:53:32;16.65;;;2.38;;
76953;SDS011;65893;51.698;-0.292;2024-02-14T03:55:58;7.28;;;1.08;;
76953;SDS011;65893;51.698;-0.292;2024-02-14T03:58:24;10.38;;;1.58;;
76953;SDS011;65893;51.698;-0.292;2024-02-14T04:00:50;13.18;;;1.25;;
76953;SDS011;65893;51.698;-0.292;2024-02-14T04:03:17;6.70;;;1.55;;
76953;SDS011;65893;51.698;-0.292;2024-02-14T04:05:43;7.60;;;1.70;;
76953;SDS011;65893;51.698;-0.292;2024-02-14T04:08:10;7.40;;;1.10;;
76953;SDS011;65893;51.698;-0.292;2024-02-14T04:10:36;5.03;;;1.00;;
76953;SDS011;65893;51.698;-0.292;2024-02-14T04:13:03;9.18;;;2.00;;
76953;SDS011;65893;51.698;-0.292;2024-02-14T04:15:29;7.18;;;1.13;;
76953;SDS011;65893;51.698;-0.292;2024-02-14T04:17:55;11.98;;;2.30;;
76953;SDS011;65893;51.698;-0.292;2024-02-14T04:20:22;8.80;;;1.30;;
76953;SDS011;65893;51.698;-0.292;2024-02-14T04:22:48;8.23;;;1.20;;
76953;SDS011;65893;51.698;-0.292;2024-02-14T04:25:14;9.18;;;1.67;;
76953;SDS011;65893;51.698;-0.292;2024-02-14T04:27:40;8.52;;;1.20;;
76953;SDS011;65893;51.698;-0.292;2024-02-14T04:30:06;8.30;;;1.35;;
76953;SDS011;65893;51.698;-0.292;2024-02-14T04:32:32;11.23;;;1.20;;
76953;SDS011;65893;51.698;-0.292;2024-02-14T04:34:58;6.35;;;0.95;;
76953;SDS011;65893;51.698;-0.292;2024-02-14T04:37:24;4.10;;;1.10;;
76953;SDS011;65893;51.698;-0.292;2024-02-14T04:39:50;8.98;;;1.55;;
76953;SDS011;65893;51.698;-0.292;2024-02-14T04:42:16;5.80;;;1.20;;
76953;SDS011;65893;51.698;-0.292;2024-02-14T04:44:42;5.10;;;1.30;;
76953;SDS011;65893;51.698;-0.292;2024-02-14T04:47:08;6.70;;;1.00;;
76953;SDS011;65893;51.698;-0.292;2024-02-14T04:49:35;7.78;;;1.60;;
76953;SDS011;65893;51.698;-0.292;2024-02-14T04:52:01;8.55;;;0.77;;
76953;SDS011;65893;51.698;-0.292;2024-02-14T04:54:29;6.88;;;1.05;;
76953;SDS011;65893;51.698;-0.292;2024-02-14T04:56:55;10.07;;;2.17;;
76953;SDS011;65893;51.698;-0.292;2024-02-14T04:59:21;3.92;;;0.73;;
76953;SDS011;65893;51.698;-0.292;2024-02-14T05:01:47;6.07;;;1.58;;
76953;SDS011;65893;51.698;-0.292;2024-02-14T05:04:13;8.60;;;1.40;;
76953;SDS011;65893;51.698;-0.292;2024-02-14T05:06:39;10.18;;;1.23;;
76953;SDS011;65893;51.698;-0.292;2024-02-14T05:09:06;10.55;;;1.58;;
76953;SDS011;65893;51.698;-0.292;2024-02-14T05:11:35;8.00;;;1.00;;
76953;SDS011;65893;51.698;-0.292;2024-02-14T05:14:01;7.57;;;1.63;;
76953;SDS011;65893;51.698;-0.292;2024-02-14T05:16:27;8.45;;;1.55;;
76953;SDS011;65893;51.698;-0.292;2024-02-14T05:18:53;7.00;;;0.93;;
76953;SDS011;65893;51.698;-0.292;2024-02-14T05:21:22;8.25;;;1.00;;
76953;SDS011;65893;51.698;-0.292;2024-02-14T05:23:48;6.85;;;1.15;;
76953;SDS011;65893;51.698;-0.292;2024-02-14T05:26:15;5.43;;;0.75;;
76953;SDS011;65893;51.698;-0.292;2024-02-14T05:28:41;8.32;;;1.27;;
76953;SDS011;65893;51.698;-0.292;2024-02-14T05:31:07;9.30;;;1.85;;
76953;SDS011;65893;51.698;-0.292;2024-02-14T05:33:33;9.70;;;1.52;;
76953;SDS011;65893;51.698;-0.292;2024-02-14T05:35:59;5.88;;;1.23;;
76953;SDS011;65893;51.698;-0.292;2024-02-14T05:38:25;9.88;;;1.50;;
76953;SDS011;65893;51.698;-0.292;2024-02-14T05:40:51;8.55;;;1.52;;
76953;SDS011;65893;51.698;-0.292;2024-02-14T05:43:17;9.50;;;1.48;;
76953;SDS011;65893;51.698;-0.292;2024-02-14T05:45:44;13.73;;;2.03;;
76953;SDS011;65893;51.698;-0.292;2024-02-14T05:48:10;6.95;;;1.17;;
76953;SDS011;65893;51.698;-0.292;2024-02-14T05:50:35;11.95;;;1.92;;
76953;SDS011;65893;51.698;-0.292;2024-02-14T05:53:02;7.75;;;2.20;;
76953;SDS011;65893;51.698;-0.292;2024-02-14T05:55:28;16.55;;;2.45;;
76953;SDS011;65893;51.698;-0.292;2024-02-14T05:57:54;12.77;;;2.22;;
76953;SDS011;65893;51.698;-0.292;2024-02-14T06:00:22;13.85;;;2.05;;
76953;SDS011;65893;51.698;-0.292;2024-02-14T06:02:48;5.90;;;1.30;;
76953;SDS011;65893;51.698;-0.292;2024-02-14T06:05:15;7.75;;;1.65;;
76953;SDS011;65893;51.698;-0.292;2024-02-14T06:07:41;9.52;;;1.92;;
76953;SDS011;65893;51.698;-0.292;2024-02-14T06:10:09;12.52;;;2.13;;
76953;SDS011;65893;51.698;-0.292;2024-02-14T06:12:36;9.10;;;1.98;;
76953;SDS011;65893;51.698;-0.292;2024-02-14T06:15:02;10.65;;;2.58;;
76953;SDS011;65893;51.698;-0.292;2024-02-14T06:17:28;9.30;;;1.85;;
76953;SDS011;65893;51.698;-0.292;2024-02-14T06:19:54;8.77;;;2.20;;
76953;SDS011;65893;51.698;-0.292;2024-02-14T06:22:21;15.00;;;2.38;;
76953;SDS011;65893;51.698;-0.292;2024-02-14T06:24:47;11.55;;;2.58;;
76953;SDS011;65893;51.698;-0.292;2024-02-14T06:27:13;8.63;;;2.97;;
76953;SDS011;65893;51.698;-0.292;2024-02-14T06:29:43;7.63;;;1.75;;
76953;SDS011;65893;51.698;-0.292;2024-02-14T06:32:11;10.68;;;2.10;;
76953;SDS011;65893;51.698;-0.292;2024-02-14T06:34:37;7.47;;;1.58;;
76953;SDS011;65893;51.698;-0.292;2024-02-14T06:37:03;9.88;;;2.58;;
76953;SDS011;65893;51.698;-0.292;2024-02-14T06:39:29;10.70;;;2.28;;
76953;SDS011;65893;51.698;-0.292;2024-02-14T06:41:55;14.60;;;2.40;;
76953;SDS011;65893;51.698;-0.292;2024-02-14T06:44:24;12.13;;;3.33;;
76953;SDS011;65893;51.698;-0.292;2024-02-14T06:46:50;14.20;;;2.58;;
76953;SDS011;65893;51.698;-0.292;2024-02-14T06:49:16;14.30;;;3.35;;
76953;SDS011;65893;51.698;-0.292;2024-02-14T06:51:43;12.60;;;2.85;;
76953;SDS011;65893;51.698;-0.292;2024-02-14T06:54:09;15.93;;;2.60;;
76953;SDS011;65893;51.698;-0.292;2024-02-14T06:56:37;13.45;;;2.72;;
76953;SDS011;65893;51.698;-0.292;2024-02-14T06:59:03;8.25;;;2.30;;
76953;SDS011;65893;51.698;-0.292;2024-02-14T07:01:29;11.15;;;2.45;;
76953;SDS011;65893;51.698;-0.292;2024-02-14T07:03:56;4.93;;;1.63;;
76953;SDS011;65893;51.698;-0.292;2024-02-14T07:06:22;10.48;;;2.85;;
76953;SDS011;65893;51.698;-0.292;2024-02-14T07:08:48;79.35;;;6.88;;
76953;SDS011;65893;51.698;-0.292;2024-02-14T07:11:14;10.18;;;2.20;;
76953;SDS011;65893;51.698;-0.292;2024-02-14T07:13:40;11.82;;;2.47;;
76953;SDS011;65893;51.698;-0.292;2024-02-14T07:16:07;16.27;;;2.55;;
76953;SDS011;65893;51.698;-0.292;2024-02-14T07:18:36;6.07;;;2.20;;
76953;SDS011;65893;51.698;-0.292;2024-02-14T07:21:02;8.30;;;2.35;;
76953;SDS011;65893;51.698;-0.292;2024-02-14T07:23:30;8.57;;;2.75;;
76953;SDS011;65893;51.698;-0.292;2024-02-14T07:25:58;8.73;;;1.90;;
76953;SDS011;65893;51.698;-0.292;2024-02-14T07:28:26;12.93;;;2.45;;
76953;SDS011;65893;51.698;-0.292;2024-02-14T07:30:52;6.53;;;1.45;;
76953;SDS011;65893;51.698;-0.292;2024-02-14T07:33:18;11.35;;;1.90;;
76953;SDS011;65893;51.698;-0.292;2024-02-14T07:35:44;11.95;;;1.77;;
76953;SDS011;65893;51.698;-0.292;2024-02-14T07:38:12;9.15;;;1.60;;
76953;SDS011;65893;51.698;-0.292;2024-02-14T07:40:38;8.40;;;1.55;;
76953;SDS011;65893;51.698;-0.292;2024-02-14T07:43:04;5.47;;;1.48;;
76953;SDS011;65893;51.698;-0.292;2024-02-14T07:45:32;4.40;;;1.27;;
76953;SDS011;65893;51.698;-0.292;2024-02-14T07:47:58;8.07;;;1.65;;
76953;SDS011;65893;51.698;-0.292;2024-02-14T07:50:24;5.43;;;1.73;;
76953;SDS011;65893;51.698;-0.292;2024-02-14T07:52:52;8.93;;;2.13;;
76953;SDS011;65893;51.698;-0.292;2024-02-14T07:55:18;9.18;;;2.03;;
76953;SDS011;65893;51.698;-0.292;2024-02-14T07:57:45;11.60;;;2.25;;
76953;SDS011;65893;51.698;-0.292;2024-02-14T08:00:11;7.22;;;1.90;;
76953;SDS011;65893;51.698;-0.292;2024-02-14T08:02:39;7.47;;;2.00;;
76953;SDS011;65893;51.698;-0.292;2024-02-14T08:05:05;10.40;;;2.28;;
76953;SDS011;65893;51.698;-0.292;2024-02-14T08:07:31;10.20;;;2.08;;
76953;SDS011;65893;51.698;-0.292;2024-02-14T08:09:57;8.85;;;2.42;;
76953;SDS011;65893;51.698;-0.292;2024-02-14T08:12:23;9.90;;;2.45;;
76953;SDS011;65893;51.698;-0.292;2024-02-14T08:14:50;12.13;;;2.47;;
76953;SDS011;65893;51.698;-0.292;2024-02-14T08:17:16;4.60;;;2.10;;
76953;SDS011;65893;51.698;-0.292;2024-02-14T08:19:42;7.20;;;2.60;;
76953;SDS011;65893;51.698;-0.292;2024-02-14T08:22:09;8.23;;;2.67;;
76953;SDS011;65893;51.698;-0.292;2024-02-14T08:24:35;4.70;;;1.90;;
76953;SDS011;65893;51.698;-0.292;2024-02-14T08:27:01;9.60;;;2.58;;
76953;SDS011;65893;51.698;-0.292;2024-02-14T08:29:28;11.18;;;2.30;;
76953;SDS011;65893;51.698;-0.292;2024-02-14T08:31:54;10.40;;;2.00;;
76953;SDS011;65893;51.698;-0.292;2024-02-14T08:34:21;3.70;;;1.63;;
76953;SDS011;65893;51.698;-0.292;2024-02-14T08:36:47;8.70;;;2.17;;
76953;SDS011;65893;51.698;-0.292;2024-02-14T08:39:13;11.30;;;2.95;;
76953;SDS011;65893;51.698;-0.292;2024-02-14T08:41:39;8.27;;;2.30;;
76953;SDS011;65893;51.698;-0.292;2024-02-14T08:44:06;6.80;;;1.55;;
76953;SDS011;65893;51.698;-0.292;2024-02-14T08:46:32;10.30;;;2.30;;
76953;SDS011;65893;51.698;-0.292;2024-02-14T08:48:59;8.93;;;1.90;;
76953;SDS011;65893;51.698;-0.292;2024-02-14T08:51:27;6.88;;;1.88;;
76953;SDS011;65893;51.698;-0.292;2024-02-14T08:53:53;7.60;;;1.60;;
76953;SDS011;65893;51.698;-0.292;2024-02-14T08:56:20;9.73;;;2.25;;
76953;SDS011;65893;51.698;-0.292;2024-02-14T08:58:49;6.22;;;1.90;;
76953;SDS011;65893;51.698;-0.292;2024-02-14T09:01:15;8.75;;;1.85;;
76953;SDS011;65893;51.698;-0.292;2024-02-14T09:03:42;10.25;;;2.10;;
76953;SDS011;65893;51.698;-0.292;2024-02-14T09:06:12;9.13;;;2.55;;
76953;SDS011;65893;51.698;-0.292;2024-02-14T09:08:38;5.70;;;2.05;;
76953;SDS011;65893;51.698;-0.292;2024-02-14T09:11:05;10.35;;;1.80;;
76953;SDS011;65893;51.698;-0.292;2024-02-14T09:13:31;3.83;;;1.27;;
76953;SDS011;65893;51.698;-0.292;2024-02-14T09:15:57;6.20;;;1.33;;
76953;SDS011;65893;51.698;-0.292;2024-02-14T09:18:24;8.13;;;1.85;;
76953;SDS011;65893;51.698;-0.292;2024-02-14T09:20:50;6.20;;;1.48;;
76953;SDS011;65893;51.698;-0.292;2024-02-14T09:23:17;6.78;;;1.88;;
76953;SDS011;65893;51.698;-0.292;2024-02-14T09:25:47;6.78;;;1.35;;
76953;SDS011;65893;51.698;-0.292;2024-02-14T09:28:15;9.13;;;2.22;;
76953;SDS011;65893;51.698;-0.292;2024-02-14T09:30:41;10.65;;;1.77;;
76953;SDS011;65893;51.698;-0.292;2024-02-14T09:33:07;6.78;;;1.52;;
76953;SDS011;65893;51.698;-0.292;2024-02-14T09:35:34;5.03;;;2.00;;
76953;SDS011;65893;51.698;-0.292;2024-02-14T09:38:02;10.40;;;1.90;;
76953;SDS011;65893;51.698;-0.292;2024-02-14T09:40:29;5.90;;;1.05;;
76953;SDS011;65893;51.698;-0.292;2024-02-14T09:42:55;3.15;;;1.08;;
76953;SDS011;65893;51.698;-0.292;2024-02-14T09:45:26;7.15;;;1.25;;
76953;SDS011;65893;51.698;-0.292;2024-02-14T09:47:52;6.43;;;1.40;;
76953;SDS011;65893;51.698;-0.292;2024-02-14T09:50:19;5.63;;;1.50;;
76953;SDS011;65893;51.698;-0.292;2024-02-14T09:52:46;6.10;;;1.67;;
76953;SDS011;65893;51.698;-0.292;2024-02-14T09:55:14;5.55;;;1.45;;
76953;SDS011;65893;51.698;-0.292;2024-02-14T09:57:41;6.88;;;1.92;;
76953;SDS011;65893;51.698;-0.292;2024-02-14T10:00:09;8.82;;;1.40;;
76953;SDS011;65893;51.698;-0.292;2024-02-14T10:02:35;3.67;;;1.30;;
76953;SDS011;65893;51.698;-0.292;2024-02-14T10:05:01;7.50;;;1.75;;
76953;SDS011;65893;51.698;-0.292;2024-02-14T10:07:27;2.75;;;1.15;;
76953;SDS011;65893;51.698;-0.292;2024-02-14T10:09:53;5.28;;;1.38;;
76953;SDS011;65893;51.698;-0.292;2024-02-14T10:12:19;5.18;;;1.63;;
76953;SDS011;65893;51.698;-0.292;2024-02-14T10:14:45;6.85;;;2.17;;
76953;SDS011;65893;51.698;-0.292;2024-02-14T10:17:18;7.18;;;1.92;;
76953;SDS011;65893;51.698;-0.292;2024-02-14T10:19:54;5.07;;;1.42;;
76953;SDS011;65893;51.698;-0.292;2024-02-14T10:22:20;5.85;;;2.00;;
76953;SDS011;65893;51.698;-0.292;2024-02-14T10:24:46;5.43;;;1.83;;
76953;SDS011;65893;51.698;-0.292;2024-02-14T10:27:12;5.53;;;1.90;;
76953;SDS011;65893;51.698;-0.292;2024-02-14T10:29:39;5.32;;;1.85;;
76953;SDS011;65893;51.698;-0.292;2024-02-14T10:32:06;7.70;;;1.67;;
76953;SDS011;65893;51.698;-0.292;2024-02-14T10:34:32;5.18;;;1.20;;
76953;SDS011;65893;51.698;-0.292;2024-02-14T10:36:59;5.57;;;1.40;;
76953;SDS011;65893;51.698;-0.292;2024-02-14T10:39:26;5.03;;;1.23;;
76953;SDS011;65893;51.698;-0.292;2024-02-14T10:41:52;3.38;;;1.27;;
76953;SDS011;65893;51.698;-0.292;2024-02-14T10:44:19;3.92;;;1.42;;
76953;SDS011;65893;51.698;-0.292;2024-02-14T10:46:45;4.03;;;1.40;;
76953;SDS011;65893;51.698;-0.292;2024-02-14T10:49:12;5.03;;;1.27;;
76953;SDS011;65893;51.698;-0.292;2024-02-14T10:51:38;3.90;;;1.63;;
76953;SDS011;65893;51.698;-0.292;2024-02-14T10:54:12;5.22;;;1.52;;
76953;SDS011;65893;51.698;-0.292;2024-02-14T10:56:39;4.00;;;1.40;;
76953;SDS011;65893;51.698;-0.292;2024-02-14T10:59:07;5.45;;;1.50;;
76953;SDS011;65893;51.698;-0.292;2024-02-14T11:01:36;4.80;;;1.42;;
76953;SDS011;65893;51.698;-0.292;2024-02-14T11:04:02;5.35;;;1.42;;
76953;SDS011;65893;51.698;-0.292;2024-02-14T11:06:29;4.20;;;1.10;;
76953;SDS011;65893;51.698;-0.292;2024-02-14T11:09:05;3.75;;;1.20;;
76953;SDS011;65893;51.698;-0.292;2024-02-14T11:11:32;4.82;;;1.95;;
76953;SDS011;65893;51.698;-0.292;2024-02-14T11:13:59;7.00;;;2.03;;
76953;SDS011;65893;51.698;-0.292;2024-02-14T11:16:26;5.32;;;1.80;;
76953;SDS011;65893;51.698;-0.292;2024-02-14T11:18:53;7.18;;;1.95;;
76953;SDS011;65893;51.698;-0.292;2024-02-14T11:21:21;7.63;;;1.95;;
76953;SDS011;65893;51.698;-0.292;2024-02-14T11:23:54;5.30;;;2.08;;
76953;SDS011;65893;51.698;-0.292;2024-02-14T11:26:20;4.55;;;1.42;;
76953;SDS011;65893;51.698;-0.292;2024-02-14T11:28:59;6.22;;;1.35;;
76953;SDS011;65893;51.698;-0.292;2024-02-14T11:31:31;3.28;;;1.40;;
76953;SDS011;65893;51.698;-0.292;2024-02-14T11:34:02;4.20;;;1.40;;
76953;SDS011;65893;51.698;-0.292;2024-02-14T11:36:29;3.95;;;1.60;;
76953;SDS011;65893;51.698;-0.292;2024-02-14T11:38:55;4.15;;;0.98;;
76953;SDS011;65893;51.698;-0.292;2024-02-14T11:41:22;5.68;;;1.58;;
76953;SDS011;65893;51.698;-0.292;2024-02-14T11:43:51;3.15;;;1.02;;
76953;SDS011;65893;51.698;-0.292;2024-02-14T11:46:17;7.85;;;1.88;;
76953;SDS011;65893;51.698;-0.292;2024-02-14T11:48:43;3.75;;;1.35;;
76953;SDS011;65893;51.698;-0.292;2024-02-14T11:51:11;5.95;;;1.38;;
76953;SDS011;65893;51.698;-0.292;2024-02-14T11:53:38;3.80;;;1.02;;
76953;SDS011;65893;51.698;-0.292;2024-02-14T11:56:06;3.53;;;0.90;;
76953;SDS011;65893;51.698;-0.292;2024-02-14T11:58:32;3.85;;;1.35;;
76953;SDS011;65893;51.698;-0.292;2024-02-14T12:00:59;9.18;;;1.60;;
76953;SDS011;65893;51.698;-0.292;2024-02-14T12:03:31;3.25;;;1.40;;
76953;SDS011;65893;51.698;-0.292;2024-02-14T12:05:58;4.32;;;1.30;;
76953;SDS011;65893;51.698;-0.292;2024-02-14T12:08:24;3.67;;;1.02;;
76953;SDS011;65893;51.698;-0.292;2024-02-14T12:10:50;4.80;;;1.10;;
76953;SDS011;65893;51.698;-0.292;2024-02-14T12:13:17;9.07;;;1.27;;
76953;SDS011;65893;51.698;-0.292;2024-02-14T12:15:45;6.00;;;1.30;;
76953;SDS011;65893;51.698;-0.292;2024-02-14T12:18:12;4.32;;;0.82;;
76953;SDS011;65893;51.698;-0.292;2024-02-14T12:20:41;3.85;;;1.23;;
76953;SDS011;65893;51.698;-0.292;2024-02-14T12:23:18;3.20;;;1.15;;
76953;SDS011;65893;51.698;-0.292;2024-02-14T12:25:47;3.33;;;1.08;;
76953;SDS011;65893;51.698;-0.292;2024-02-14T12:28:16;5.63;;;1.20;;
76953;SDS011;65893;51.698;-0.292;2024-02-14T12:30:43;8.13;;;1.33;;
76953;SDS011;65893;51.698;-0.292;2024-02-14T12:33:14;5.20;;;1.55;;
76953;SDS011;65893;51.698;-0.292;2024-02-14T12:35:44;8.07;;;1.63;;
76953;SDS011;65893;51.698;-0.292;2024-02-14T12:38:10;5.25;;;1.60;;
76953;SDS011;65893;51.698;-0.292;2024-02-14T12:40:37;5.65;;;1.15;;
76953;SDS011;65893;51.698;-0.292;2024-02-14T12:43:03;4.80;;;1.15;;
76953;SDS011;65893;51.698;-0.292;2024-02-14T12:45:31;4.20;;;1.40;;
76953;SDS011;65893;51.698;-0.292;2024-02-14T12:47:57;5.75;;;1.48;;
76953;SDS011;65893;51.698;-0.292;2024-02-14T12:50:23;5.63;;;1.05;;
76953;SDS011;65893;51.698;-0.292;2024-02-14T12:52:49;6.22;;;1.42;;
76953;SDS011;65893;51.698;-0.292;2024-02-14T12:55:15;4.53;;;1.20;;
76953;SDS011;65893;51.698;-0.292;2024-02-14T12:57:41;3.80;;;0.95;;
76953;SDS011;65893;51.698;-0.292;2024-02-14T13:00:07;8.05;;;1.27;;
76953;SDS011;65893;51.698;-0.292;2024-02-14T13:02:37;8.30;;;1.52;;
76953;SDS011;65893;51.698;-0.292;2024-02-14T13:05:03;10.15;;;1.42;;
76953;SDS011;65893;51.698;-0.292;2024-02-14T13:07:30;4.22;;;1.10;;
76953;SDS011;65893;51.698;-0.292;2024-02-14T13:09:56;9.05;;;2.22;;
76953;SDS011;65893;51.698;-0.292;2024-02-14T13:12:22;8.40;;;1.40;;
76953;SDS011;65893;51.698;-0.292;2024-02-14T13:14:48;8.38;;;2.72;;
76953;SDS011;65893;51.698;-0.292;2024-02-14T13:17:14;7.35;;;1.63;;
76953;SDS011;65893;51.698;-0.292;2024-02-14T13:19:40;6.15;;;1.13;;
76953;SDS011;65893;51.698;-0.292;2024-02-14T13:22:08;3.50;;;0.98;;
76953;SDS011;65893;51.698;-0.292;2024-02-14T13:24:34;4.63;;;1.17;;
76953;SDS011;65893;51.698;-0.292;2024-02-14T13:27:00;3.75;;;1.00;;
76953;SDS011;65893;51.698;-0.292;2024-02-14T13:29:26;7.95;;;1.77;;
76953;SDS011;65893;51.698;-0.292;2024-02-14T13:31:53;6.20;;;1.55;;
76953;SDS011;65893;51.698;-0.292;2024-02-14T13:34:19;8.55;;;1.70;;
76953;SDS011;65893;51.698;-0.292;2024-02-14T13:36:45;6.00;;;1.38;;
76953;SDS011;65893;51.698;-0.292;2024-02-14T13:39:12;6.30;;;2.28;;
76953;SDS011;65893;51.698;-0.292;2024-02-14T13:41:38;3.63;;;1.08;;
76953;SDS011;65893;51.698;-0.292;2024-02-14T13:44:07;5.88;;;1.20;;
76953;SDS011;65893;51.698;-0.292;2024-02-14T13:46:33;4.63;;;1.15;;
76953;SDS011;65893;51.698;-0.292;2024-02-14T13:49:00;5.57;;;1.00;;
76953;SDS011;65893;51.698;-0.292;2024-02-14T13:51:26;8.32;;;2.35;;
76953;SDS011;65893;51.698;-0.292;2024-02-14T13:53:52;5.13;;;1.35;;
76953;SDS011;65893;51.698;-0.292;2024-02-14T13:56:18;5.57;;;1.50;;
76953;SDS011;65893;51.698;-0.292;2024-02-14T13:58:47;7.15;;;1.30;;
76953;SDS011;65893;51.698;-0.292;2024-02-14T14:01:14;7.85;;;1.75;;
76953;SDS011;65893;51.698;-0.292;2024-02-14T14:03:40;6.80;;;1.60;;
76953;SDS011;65893;51.698;-0.292;2024-02-14T14:06:06;4.82;;;1.85;;
76953;SDS011;65893;51.698;-0.292;2024-02-14T14:08:34;4.25;;;1.48;;
76953;SDS011;65893;51.698;-0.292;2024-02-14T14:11:02;7.53;;;1.60;;
76953;SDS011;65893;51.698;-0.292;2024-02-14T14:13:29;3.38;;;1.45;;
76953;SDS011;65893;51.698;-0.292;2024-02-14T14:15:58;4.90;;;1.45;;
76953;SDS011;65893;51.698;-0.292;2024-02-14T14:18:24;6.75;;;1.27;;
76953;SDS011;65893;51.698;-0.292;2024-02-14T14:20:50;6.65;;;1.95;;
76953;SDS011;65893;51.698;-0.292;2024-02-14T14:23:16;5.35;;;1.40;;
76953;SDS011;65893;51.698;-0.292;2024-02-14T14:25:42;6.00;;;1.40;;
76953;SDS011;65893;51.698;-0.292;2024-02-14T14:28:08;8.10;;;1.67;;